Time;durP1;ratioP1;P1;durP2;ratioP2;P2;SDS_P1;SDS_P2;PMS_P1;PMS_P2;Temp;Humidity;BMP_temperature;BMP_pressure;BME280_temperature;BME280_humidity;BME280_pressure;Samples;Min_cycle;Max_cycle;Signal;HPM_P1;HPM_P2
2022/08/02 00:00:28;;;;;;;5.50;1.60;;;17.30;99.90;;;;;;4976333;28;20117;-67
2022/08/02 00:02:53;;;;;;;4.95;1.80;;;17.30;99.90;;;;;;4976394;28;20102;-66
2022/08/02 00:05:19;;;;;;;3.55;1.60;;;17.30;99.90;;;;;;4976241;28;20045;-69
2022/08/02 00:07:45;;;;;;;4.00;1.55;;;17.30;99.90;;;;;;4975999;28;20022;-66
2022/08/02 00:10:11;;;;;;;8.00;1.67;;;17.30;99.90;;;;;;4976336;28;20060;-67
2022/08/02 00:12:38;;;;;;;5.70;1.88;;;17.40;99.90;;;;;;4976267;28;20019;-67
2022/08/02 00:15:06;;;;;;;8.40;2.00;;;17.30;99.90;;;;;;4974562;28;20066;-69
2022/08/02 00:17:32;;;;;;;8.65;2.20;;;17.30;99.90;;;;;;4974634;28;20041;-67
2022/08/02 00:19:57;;;;;;;11.05;2.53;;;17.30;99.90;;;;;;4975044;28;20039;-67
2022/08/02 00:22:23;;;;;;;10.88;2.95;;;17.20;99.90;;;;;;4976710;28;20341;-70
2022/08/02 00:24:48;;;;;;;14.75;3.47;;;17.20;99.90;;;;;;4974882;28;20065;-68
2022/08/02 00:27:14;;;;;;;10.95;2.65;;;17.10;99.90;;;;;;4976440;28;20035;-67
2022/08/02 00:29:40;;;;;;;8.88;2.42;;;17.10;99.90;;;;;;4975024;28;20030;-67
2022/08/02 00:32:05;;;;;;;8.25;2.22;;;17.10;99.90;;;;;;4976463;28;20023;-67
2022/08/02 00:34:31;;;;;;;6.07;1.80;;;17.00;99.90;;;;;;4976306;28;20029;-67
2022/08/02 00:36:57;;;;;;;9.48;2.15;;;17.00;99.90;;;;;;4976486;28;20369;-67
2022/08/02 00:39:22;;;;;;;9.15;1.63;;;17.00;99.90;;;;;;4974763;28;20113;-71
2022/08/02 00:41:51;;;;;;;8.98;1.85;;;16.90;99.90;;;;;;4974668;28;20039;-69
2022/08/02 00:44:18;;;;;;;5.78;2.10;;;16.90;99.90;;;;;;4975906;28;20035;-67
2022/08/02 00:46:44;;;;;;;10.02;2.25;;;16.90;99.90;;;;;;4976669;28;20048;-67
2022/08/02 00:49:11;;;;;;;6.00;1.77;;;16.90;99.90;;;;;;4975988;28;20529;-67
2022/08/02 00:51:37;;;;;;;8.63;1.73;;;16.90;99.90;;;;;;4975896;28;20484;-68
2022/08/02 00:54:03;;;;;;;5.43;1.65;;;16.90;99.90;;;;;;4976004;28;20031;-68
2022/08/02 00:56:28;;;;;;;4.78;1.70;;;16.90;99.90;;;;;;4975775;28;20126;-72
2022/08/02 00:58:54;;;;;;;6.88;1.90;;;16.90;99.90;;;;;;4976027;28;20035;-66
2022/08/02 01:01:37;;;;;;;4.60;1.70;;;17.00;99.90;;;;;;4975907;28;20054;-68
2022/08/02 01:04:12;;;;;;;3.97;1.45;;;17.00;99.90;;;;;;4976077;28;20035;-67
2022/08/02 01:06:40;;;;;;;10.00;2.05;;;17.00;99.90;;;;;;4975849;28;20054;-69
2022/08/02 01:09:06;;;;;;;7.68;1.90;;;17.00;99.90;;;;;;4975614;28;20449;-68
2022/08/02 01:11:33;;;;;;;6.40;1.92;;;17.00;99.90;;;;;;4975695;28;20027;-68
2022/08/02 01:14:09;;;;;;;9.02;2.25;;;17.00;99.90;;;;;;4975830;28;20081;-69
2022/08/02 01:16:42;;;;;;;7.57;1.90;;;17.10;99.90;;;;;;4975857;28;20030;-68
2022/08/02 01:19:21;;;;;;;7.90;2.53;;;17.10;99.90;;;;;;4975273;28;20466;-71
2022/08/02 01:22:18;;;;;;;10.00;2.20;;;17.10;99.90;;;;;;4975203;28;20421;-66
2022/08/02 01:25:18;;;;;;;8.90;2.80;;;17.10;99.90;;;;;;4974788;28;20476;-67
2022/08/02 01:28:02;;;;;;;6.85;2.17;;;17.20;99.90;;;;;;4975175;28;20089;-67
2022/08/02 01:30:30;;;;;;;8.05;2.42;;;17.10;99.90;;;;;;4975558;28;20464;-70
2022/08/02 01:33:00;;;;;;;10.05;2.28;;;17.10;99.90;;;;;;4975268;28;20074;-67
2022/08/02 01:35:46;;;;;;;9.75;2.50;;;17.00;99.90;;;;;;4975139;28;20093;-71
2022/08/02 01:38:32;;;;;;;8.88;2.63;;;17.10;99.90;;;;;;4975200;28;20023;-70
2022/08/02 01:41:01;;;;;;;6.75;2.25;;;17.00;99.90;;;;;;4975132;28;20043;-67
2022/08/02 01:43:30;;;;;;;8.05;2.13;;;17.00;99.90;;;;;;4974959;28;20062;-69
2022/08/02 01:45:57;;;;;;;5.10;2.33;;;17.10;99.90;;;;;;4975053;28;20014;-66
2022/08/02 01:48:25;;;;;;;7.60;2.33;;;17.00;99.90;;;;;;4974482;28;20038;-72
2022/08/02 01:50:52;;;;;;;5.35;2.22;;;17.00;99.90;;;;;;4974693;28;20031;-67
2022/08/02 01:53:19;;;;;;;8.15;2.42;;;17.00;99.90;;;;;;4974940;28;20026;-68
2022/08/02 01:55:48;;;;;;;9.73;2.50;;;17.00;99.90;;;;;;4974959;28;20105;-70
2022/08/02 01:58:16;;;;;;;12.23;2.72;;;17.00;99.90;;;;;;4974860;28;20472;-67
2022/08/02 02:00:43;;;;;;;7.78;1.95;;;16.90;99.90;;;;;;4974607;28;20043;-69
2022/08/02 02:03:14;;;;;;;4.53;1.83;;;16.90;99.90;;;;;;4974049;28;20033;-69
2022/08/02 02:05:41;;;;;;;8.38;1.85;;;16.80;99.90;;;;;;4974923;28;20247;-68
2022/08/02 02:08:08;;;;;;;11.20;2.30;;;16.80;99.90;;;;;;4974710;28;20101;-68
2022/08/02 02:10:37;;;;;;;9.90;2.08;;;16.80;99.90;;;;;;4974811;28;20492;-68
2022/08/02 02:13:08;;;;;;;4.90;2.10;;;16.70;99.90;;;;;;4974344;28;20031;-67
2022/08/02 02:15:38;;;;;;;4.90;1.73;;;16.70;99.90;;;;;;4973210;28;20476;-72
2022/08/02 02:18:06;;;;;;;7.15;2.00;;;16.70;99.90;;;;;;4973092;28;20050;-67
2022/08/02 02:20:32;;;;;;;4.07;1.10;;;16.70;99.90;;;;;;4974524;28;20031;-69
2022/08/02 02:22:58;;;;;;;7.25;1.58;;;16.80;99.90;;;;;;4974553;28;20069;-68
2022/08/02 02:25:24;;;;;;;3.55;1.60;;;16.80;99.90;;;;;;4974546;28;20096;-67
2022/08/02 02:28:02;;;;;;;5.18;1.35;;;16.80;99.90;;;;;;4974020;28;20037;-69
2022/08/02 02:30:30;;;;;;;6.32;1.48;;;16.80;99.90;;;;;;4974598;28;20047;-66
2022/08/02 02:32:58;;;;;;;4.25;1.20;;;16.80;99.90;;;;;;4974294;28;20019;-67
2022/08/02 02:35:30;;;;;;;1.50;1.17;;;16.80;99.90;;;;;;4974378;28;20054;-67
2022/08/02 02:37:59;;;;;;;3.67;1.20;;;16.80;99.90;;;;;;4974384;28;20449;-67
2022/08/02 02:40:27;;;;;;;5.70;1.20;;;16.80;99.90;;;;;;4974259;28;20039;-67
2022/08/02 02:42:55;;;;;;;7.60;1.35;;;16.80;99.90;;;;;;4972697;28;20428;-69
2022/08/02 02:45:21;;;;;;;5.75;1.23;;;16.80;99.90;;;;;;4974088;28;20461;-67
2022/08/02 02:47:48;;;;;;;7.22;1.38;;;16.70;99.90;;;;;;4973288;28;20035;-66
2022/08/02 02:50:16;;;;;;;8.07;1.42;;;16.70;99.90;;;;;;4972254;28;20034;-67
2022/08/02 02:52:42;;;;;;;8.27;1.48;;;16.70;99.90;;;;;;4973829;28;20045;-69
2022/08/02 02:55:09;;;;;;;3.10;1.10;;;16.60;99.90;;;;;;4973822;28;20479;-68
2022/08/02 02:57:36;;;;;;;3.90;1.10;;;16.70;99.90;;;;;;4973584;28;20026;-67
2022/08/02 03:00:05;;;;;;;3.85;1.10;;;16.70;99.90;;;;;;4973511;28;20030;-70
2022/08/02 03:02:31;;;;;;;4.90;1.00;;;16.70;99.90;;;;;;4973816;28;20457;-68
2022/08/02 03:05:01;;;;;;;6.05;1.58;;;16.60;99.90;;;;;;4974134;28;20023;-67
2022/08/02 03:07:27;;;;;;;3.72;0.88;;;16.70;99.90;;;;;;4974127;28;20026;-67
2022/08/02 03:09:52;;;;;;;2.88;1.10;;;16.70;99.90;;;;;;4972438;28;20034;-66
2022/08/02 03:12:18;;;;;;;2.80;1.27;;;16.70;99.90;;;;;;4972286;28;20023;-68
2022/08/02 03:14:44;;;;;;;4.88;1.25;;;16.80;99.90;;;;;;4973614;28;20372;-67
2022/08/02 03:17:09;;;;;;;8.02;1.33;;;16.80;99.90;;;;;;4973721;28;20117;-66
2022/08/02 03:19:35;;;;;;;2.03;1.08;;;16.90;99.90;;;;;;4973407;28;20037;-65
2022/08/02 03:22:01;;;;;;;4.25;1.50;;;16.90;99.60;;;;;;4973521;28;20030;-66
2022/08/02 03:24:26;;;;;;;3.55;1.02;;;17.00;99.50;;;;;;4973435;28;20034;-67
2022/08/02 03:26:52;;;;;;;4.18;1.23;;;17.10;99.30;;;;;;4973529;28;20027;-67
2022/08/02 03:29:17;;;;;;;2.90;1.02;;;17.10;99.20;;;;;;4973417;28;20023;-68
2022/08/02 03:31:45;;;;;;;5.13;1.00;;;17.10;99.10;;;;;;4973633;28;20019;-70
2022/08/02 03:34:11;;;;;;;4.63;1.13;;;17.10;99.00;;;;;;4973421;28;20041;-67
2022/08/02 03:36:39;;;;;;;3.65;1.10;;;17.10;99.10;;;;;;4973353;28;20029;-69
2022/08/02 03:39:06;;;;;;;3.75;1.33;;;17.00;99.30;;;;;;4972193;28;20026;-68
2022/08/02 03:41:34;;;;;;;4.20;1.17;;;17.00;99.40;;;;;;4973338;28;20134;-66
2022/08/02 03:44:01;;;;;;;5.03;1.30;;;17.00;99.50;;;;;;4973308;28;20102;-67
2022/08/02 03:46:27;;;;;;;3.75;1.40;;;17.00;99.60;;;;;;4973020;28;20019;-66
2022/08/02 03:48:54;;;;;;;4.60;1.50;;;17.00;99.70;;;;;;4973265;28;20057;-67
2022/08/02 03:51:21;;;;;;;5.82;1.15;;;16.90;99.90;;;;;;4973269;28;20037;-71
2022/08/02 03:53:47;;;;;;;7.15;1.13;;;16.90;99.90;;;;;;4972867;28;20034;-66
2022/08/02 03:56:14;;;;;;;3.78;1.50;;;16.80;99.90;;;;;;4973236;28;20022;-69
2022/08/02 03:58:40;;;;;;;3.05;1.08;;;16.80;99.90;;;;;;4972835;28;20393;-66
2022/08/02 04:01:05;;;;;;;4.35;1.42;;;16.70;99.90;;;;;;4973066;28;20047;-67
2022/08/02 04:03:31;;;;;;;6.05;1.30;;;16.70;99.90;;;;;;4971614;28;20054;-67
2022/08/02 04:05:57;;;;;;;3.85;1.30;;;16.70;99.90;;;;;;4973038;28;20054;-70
2022/08/02 04:08:22;;;;;;;5.20;1.30;;;16.60;99.90;;;;;;4973290;28;20524;-71
2022/08/02 04:13:35;;;;;;;4.95;1.52;;;16.60;99.90;;;;;;4973467;28;20050;-67
2022/08/02 04:16:17;;;;;;;2.60;1.40;;;16.60;99.90;;;;;;4973049;28;20476;-67
2022/08/02 04:18:50;;;;;;;4.83;1.57;;;16.60;99.90;;;;;;4973013;28;20027;-70
2022/08/02 04:21:18;;;;;;;3.70;1.55;;;16.60;99.90;;;;;;4972585;28;20396;-72
2022/08/02 04:23:46;;;;;;;4.20;1.15;;;16.60;99.90;;;;;;4972733;28;20026;-67
2022/08/02 04:26:12;;;;;;;6.80;1.70;;;16.60;99.90;;;;;;4973129;28;20046;-68
2022/08/02 04:28:39;;;;;;;5.70;1.83;;;16.60;99.90;;;;;;4974918;28;20109;-70
2022/08/02 04:31:06;;;;;;;5.65;1.70;;;16.60;99.90;;;;;;4976607;28;20134;-71
2022/08/02 04:33:31;;;;;;;4.63;1.35;;;16.70;99.90;;;;;;4976373;28;20109;-67
2022/08/02 04:35:57;;;;;;;5.82;1.80;;;16.70;99.90;;;;;;4976211;28;20115;-67
2022/08/02 04:38:23;;;;;;;5.93;2.20;;;16.70;99.90;;;;;;4976468;28;20066;-69
2022/08/02 04:40:54;;;;;;;5.10;1.40;;;16.80;99.90;;;;;;4976035;28;20037;-69
2022/08/02 04:43:21;;;;;;;2.70;1.10;;;16.80;99.90;;;;;;4976202;28;20019;-68
2022/08/02 04:45:52;;;;;;;2.45;1.33;;;16.80;99.90;;;;;;4976025;28;20373;-67
2022/08/02 04:48:18;;;;;;;4.10;1.55;;;16.80;99.90;;;;;;4975644;28;20125;-68
2022/08/02 04:50:44;;;;;;;5.60;1.55;;;16.80;99.90;;;;;;4974417;28;20035;-70
2022/08/02 04:53:09;;;;;;;7.25;2.00;;;16.90;99.90;;;;;;4976148;28;20150;-67
2022/08/02 04:55:35;;;;;;;3.85;1.58;;;16.90;99.90;;;;;;4974264;28;20023;-68
2022/08/02 04:58:00;;;;;;;4.43;1.80;;;16.90;99.90;;;;;;4975707;28;20035;-69
2022/08/02 05:00:27;;;;;;;3.65;1.60;;;17.00;99.90;;;;;;4975631;28;20082;-68
2022/08/02 05:02:55;;;;;;;3.50;1.58;;;17.00;99.90;;;;;;4975966;28;20499;-68
2022/08/02 05:05:20;;;;;;;6.43;1.80;;;17.00;99.90;;;;;;4975623;28;20026;-67
2022/08/02 05:07:46;;;;;;;3.92;1.48;;;17.00;99.90;;;;;;4974397;28;20482;-69
2022/08/02 05:10:11;;;;;;;6.30;2.03;;;17.10;99.90;;;;;;4975690;28;20448;-67
2022/08/02 05:12:38;;;;;;;5.55;1.98;;;17.10;99.90;;;;;;4975858;28;20019;-70
2022/08/02 05:15:04;;;;;;;4.47;1.65;;;17.20;99.90;;;;;;4975779;28;20027;-68
2022/08/02 05:17:29;;;;;;;5.25;1.83;;;17.20;99.90;;;;;;4975985;28;20038;-66
2022/08/02 05:19:55;;;;;;;6.88;2.10;;;17.30;99.90;;;;;;4975509;28;20449;-67
2022/08/02 05:22:20;;;;;;;6.35;2.15;;;17.40;99.90;;;;;;4975943;28;20023;-68
2022/08/02 05:24:46;;;;;;;7.55;1.92;;;17.50;99.90;;;;;;4975791;28;20077;-66
2022/08/02 05:27:11;;;;;;;6.95;2.22;;;17.60;99.90;;;;;;4975533;28;20027;-67
2022/08/02 05:29:37;;;;;;;4.03;1.70;;;17.70;99.90;;;;;;4974308;28;20031;-69
2022/08/02 05:32:03;;;;;;;6.32;1.90;;;17.70;99.90;;;;;;4975612;28;20495;-67
2022/08/02 05:34:28;;;;;;;6.63;2.25;;;17.80;99.90;;;;;;4975556;28;20041;-69
2022/08/02 05:36:54;;;;;;;6.53;2.20;;;17.80;99.90;;;;;;4975201;28;20026;-66
2022/08/02 05:39:19;;;;;;;6.60;1.98;;;17.90;99.90;;;;;;4974093;28;20029;-66
2022/08/02 05:41:45;;;;;;;6.53;1.75;;;18.00;99.80;;;;;;4975084;28;20523;-66
2022/08/02 05:44:10;;;;;;;2.92;1.80;;;18.10;99.90;;;;;;4975557;28;20544;-72
2022/08/02 05:46:36;;;;;;;7.97;2.30;;;18.30;99.50;;;;;;4975570;28;20034;-71
2022/08/02 05:49:03;;;;;;;7.88;2.08;;;18.40;99.40;;;;;;4975284;28;20088;-66
2022/08/02 05:51:58;;;;;;;6.35;2.10;;;18.60;99.00;;;;;;4975207;28;20338;-70
2022/08/02 05:54:48;;;;;;;5.43;2.20;;;18.70;98.80;;;;;;4975221;28;20033;-67
2022/08/02 05:57:25;;;;;;;8.30;2.13;;;18.80;98.80;;;;;;4973812;28;20213;-67
2022/08/02 06:00:09;;;;;;;9.25;2.20;;;19.00;98.70;;;;;;4974857;28;20027;-66
2022/08/02 06:03:01;;;;;;;5.35;1.90;;;19.20;98.40;;;;;;4974769;28;20073;-67
2022/08/02 06:05:38;;;;;;;6.60;2.30;;;19.30;98.30;;;;;;4973763;28;20374;-67
2022/08/02 06:08:08;;;;;;;4.90;2.33;;;19.40;98.30;;;;;;4975273;28;20058;-67
2022/08/02 06:10:36;;;;;;;7.32;2.17;;;19.70;98.20;;;;;;4974921;28;20129;-67
2022/08/02 06:13:09;;;;;;;7.93;2.30;;;20.10;97.70;;;;;;4974462;28;20055;-67
2022/08/02 06:15:37;;;;;;;7.82;2.30;;;20.30;97.20;;;;;;4974836;28;20015;-67
2022/08/02 06:18:04;;;;;;;11.23;2.75;;;20.70;96.60;;;;;;4974652;28;20063;-68
2022/08/02 06:20:34;;;;;;;7.28;2.50;;;20.90;96.10;;;;;;4974706;28;20023;-71
2022/08/02 06:23:03;;;;;;;8.27;3.13;;;21.10;95.90;;;;;;4972626;28;20514;-67
2022/08/02 06:25:30;;;;;;;6.43;2.25;;;21.60;95.50;;;;;;4974096;28;20027;-69
2022/08/02 06:27:58;;;;;;;7.03;2.40;;;22.00;94.80;;;;;;4973670;28;20101;-68
2022/08/02 06:30:23;;;;;;;4.75;2.40;;;22.40;94.50;;;;;;4973923;28;20034;-67
2022/08/02 06:32:50;;;;;;;5.43;2.30;;;23.00;93.70;;;;;;4974389;28;20029;-68
2022/08/02 06:35:17;;;;;;;6.82;2.83;;;23.30;93.00;;;;;;4974395;28;20070;-68
2022/08/02 06:37:57;;;;;;;9.52;2.92;;;23.40;93.00;;;;;;4973765;28;20093;-69
2022/08/02 06:40:29;;;;;;;5.47;2.30;;;23.70;92.70;;;;;;4974268;28;20027;-68
2022/08/02 06:43:09;;;;;;;10.48;3.85;;;24.00;92.40;;;;;;4974467;28;20051;-67
2022/08/02 06:45:35;;;;;;;5.05;2.90;;;24.30;92.20;;;;;;4974682;28;20106;-69
2022/08/02 06:48:01;;;;;;;6.75;3.08;;;24.50;92.00;;;;;;4973902;28;20042;-68
2022/08/02 06:50:27;;;;;;;9.48;3.00;;;24.60;91.90;;;;;;4973515;28;20097;-68
2022/08/02 06:52:53;;;;;;;6.85;3.10;;;24.50;91.90;;;;;;4974033;28;20018;-67
2022/08/02 06:55:18;;;;;;;5.07;3.00;;;24.90;91.70;;;;;;4973987;28;20338;-65
2022/08/02 06:57:44;;;;;;;5.13;2.80;;;25.30;91.30;;;;;;4973925;28;20031;-67
2022/08/02 07:00:11;;;;;;;11.20;3.40;;;25.60;91.00;;;;;;4973978;28;20035;-69
2022/08/02 07:02:38;;;;;;;9.82;3.58;;;25.80;90.90;;;;;;4972578;28;20077;-67
2022/08/02 07:05:05;;;;;;;8.50;3.33;;;25.60;91.00;;;;;;4973917;28;20453;-70
2022/08/02 07:07:31;;;;;;;10.05;3.58;;;25.50;91.20;;;;;;4973965;28;20109;-67
2022/08/02 07:09:57;;;;;;;6.57;3.55;;;25.60;91.50;;;;;;4972254;28;20061;-72
2022/08/02 07:12:22;;;;;;;10.60;4.00;;;25.80;91.50;;;;;;4973750;28;20037;-69
2022/08/02 07:14:48;;;;;;;8.23;4.20;;;25.90;91.60;;;;;;4974013;28;20031;-67
2022/08/02 07:17:13;;;;;;;7.60;3.80;;;26.00;91.80;;;;;;4968148;28;20042;-71
2022/08/02 07:19:39;;;;;;;12.02;4.63;;;26.20;91.80;;;;;;4973049;28;20035;-67
2022/08/02 07:22:04;;;;;;;10.65;4.80;;;26.60;91.90;;;;;;4973555;28;20425;-70
2022/08/02 07:24:30;;;;;;;8.95;4.75;;;27.00;91.50;;;;;;4973618;28;20035;-67
2022/08/02 07:26:56;;;;;;;9.00;4.63;;;27.20;91.70;;;;;;4973608;28;20023;-66
2022/08/02 07:29:22;;;;;;;8.13;4.10;;;26.90;91.70;;;;;;4973921;28;20026;-67
2022/08/02 07:31:48;;;;;;;13.40;5.30;;;26.70;92.10;;;;;;4973545;28;20097;-67
2022/08/02 07:34:13;;;;;;;10.40;4.60;;;26.60;92.40;;;;;;4973455;28;20019;-68
2022/08/02 07:36:39;;;;;;;11.35;5.28;;;26.40;92.70;;;;;;4973098;28;20417;-68
2022/08/02 07:39:04;;;;;;;12.02;5.00;;;26.10;93.00;;;;;;4973287;28;20540;-69
2022/08/02 07:41:30;;;;;;;10.73;4.93;;;25.80;93.60;;;;;;4973969;28;20037;-69
2022/08/02 07:43:55;;;;;;;12.07;5.60;;;25.80;93.80;;;;;;4973751;28;20031;-69
2022/08/02 07:46:21;;;;;;;10.95;5.13;;;25.60;94.10;;;;;;4973770;28;20039;-67
2022/08/02 07:48:47;;;;;;;9.98;4.55;;;25.60;94.20;;;;;;4973399;28;20078;-70
2022/08/02 07:51:14;;;;;;;11.77;4.80;;;25.40;94.30;;;;;;4973624;28;20062;-67
2022/08/02 07:53:39;;;;;;;11.18;5.32;;;25.20;94.70;;;;;;4973532;28;20057;-68
2022/08/02 07:56:05;;;;;;;11.15;4.90;;;24.90;95.20;;;;;;4973501;28;20054;-71
2022/08/02 07:58:30;;;;;;;13.07;5.72;;;24.70;95.90;;;;;;4973274;28;20041;-68
2022/08/02 08:00:56;;;;;;;15.68;5.78;;;24.50;96.30;;;;;;4973530;28;20034;-65
2022/08/02 08:03:22;;;;;;;13.55;5.50;;;24.60;96.40;;;;;;4976211;28;20357;-66
2022/08/02 08:05:48;;;;;;;11.80;5.00;;;24.70;96.50;;;;;;4977044;28;20022;-66
2022/08/02 08:08:13;;;;;;;13.65;5.57;;;25.10;96.10;;;;;;4977305;28;20027;-68
2022/08/02 08:10:40;;;;;;;12.65;5.63;;;25.60;96.00;;;;;;4975124;28;20184;-67
2022/08/02 08:13:05;;;;;;;13.88;6.05;;;26.10;95.10;;;;;;4972328;28;20381;-65
2022/08/02 08:15:31;;;;;;;11.27;4.95;;;26.80;94.70;;;;;;4976314;28;20041;-66
2022/08/02 08:17:57;;;;;;;12.45;5.72;;;27.40;94.00;;;;;;4975481;28;20038;-67
2022/08/02 08:20:22;;;;;;;14.27;6.00;;;28.00;93.50;;;;;;4976774;28;20030;-67
2022/08/02 08:22:48;;;;;;;12.38;5.63;;;28.70;92.90;;;;;;4976954;28;20027;-68
2022/08/02 08:25:15;;;;;;;10.40;5.60;;;29.60;91.90;;;;;;4976713;28;20085;-68
2022/08/02 08:27:51;;;;;;;10.00;6.47;;;30.00;91.20;;;;;;4976696;28;20023;-71
2022/08/02 08:30:18;;;;;;;10.35;5.03;;;30.10;91.10;;;;;;4976171;28;20035;-69
2022/08/02 08:32:44;;;;;;;11.50;5.95;;;30.30;90.80;;;;;;4976571;28;20023;-67
2022/08/02 08:35:10;;;;;;;8.60;5.00;;;30.70;90.50;;;;;;4976681;28;20026;-67
2022/08/02 08:37:37;;;;;;;11.25;5.63;;;30.90;90.10;;;;;;4974953;28;20098;-67
2022/08/02 08:40:06;;;;;;;12.70;6.93;;;30.70;90.20;;;;;;4976657;28;20074;-66
2022/08/02 08:42:34;;;;;;;14.15;6.85;;;30.80;90.30;;;;;;4976363;28;20026;-67
2022/08/02 08:44:59;;;;;;;12.68;6.28;;;30.50;90.50;;;;;;4976182;28;20050;-71
2022/08/02 08:47:39;;;;;;;13.35;7.00;;;30.00;91.20;;;;;;4976493;28;20085;-68
2022/08/02 08:50:18;;;;;;;12.35;6.40;;;29.90;91.50;;;;;;4975961;28;20023;-68
2022/08/02 08:53:00;;;;;;;13.40;6.90;;;30.10;91.30;;;;;;4975886;28;20031;-69
2022/08/02 08:55:28;;;;;;;13.98;7.05;;;30.40;91.30;;;;;;4975836;28;20030;-71
2022/08/02 08:57:54;;;;;;;13.02;6.97;;;30.50;90.90;;;;;;4976015;28;20019;-68
2022/08/02 09:00:20;;;;;;;15.40;6.95;;;30.50;90.90;;;;;;4976004;28;20026;-69
2022/08/02 09:02:46;;;;;;;14.43;7.07;;;30.40;91.00;;;;;;4975515;28;20022;-67
2022/08/02 09:05:14;;;;;;;13.60;7.28;;;30.10;91.40;;;;;;4976157;28;20022;-66
2022/08/02 09:07:41;;;;;;;14.32;6.50;;;30.30;91.30;;;;;;4976155;28;20433;-68
2022/08/02 09:10:32;;;;;;;12.40;6.43;;;30.10;91.30;;;;;;4976038;28;20094;-70
2022/08/02 09:13:21;;;;;;;14.07;6.83;;;29.90;91.30;;;;;;4976038;28;20141;-67
2022/08/02 09:15:58;;;;;;;13.00;5.93;;;29.60;91.40;;;;;;4975985;28;20253;-67
2022/08/02 09:18:34;;;;;;;13.98;6.47;;;29.20;91.90;;;;;;4975546;28;20023;-68
2022/08/02 09:21:02;;;;;;;11.73;6.32;;;28.80;92.30;;;;;;4974665;28;20105;-68
2022/08/02 09:23:36;;;;;;;10.70;6.20;;;28.70;92.60;;;;;;4975428;28;20050;-69
2022/08/02 09:26:07;;;;;;;13.20;5.80;;;28.50;92.70;;;;;;4975511;28;20022;-70
2022/08/02 09:28:35;;;;;;;11.52;6.00;;;28.40;92.70;;;;;;4975497;28;20030;-67
2022/08/02 09:31:12;;;;;;;9.98;5.28;;;28.40;92.90;;;;;;4975205;28;20034;-69
2022/08/02 09:33:41;;;;;;;13.43;6.78;;;28.40;92.80;;;;;;4975368;28;20027;-66
2022/08/02 09:36:11;;;;;;;14.18;6.38;;;28.40;92.80;;;;;;4970250;28;20022;-68
2022/08/02 09:38:37;;;;;;;21.30;11.65;;;28.50;93.10;;;;;;4975200;28;20019;-68
2022/08/02 09:41:04;;;;;;;18.73;9.43;;;28.60;94.00;;;;;;4974972;28;20037;-71
2022/08/02 09:43:37;;;;;;;20.25;11.07;;;29.00;93.80;;;;;;4974942;28;20027;-70
2022/08/02 09:46:24;;;;;;;21.70;10.60;;;29.50;93.30;;;;;;4974008;28;20364;-67
2022/08/02 09:48:55;;;;;;;19.42;10.93;;;29.90;92.70;;;;;;4975097;28;20154;-67
2022/08/02 09:51:23;;;;;;;20.63;11.82;;;30.50;92.20;;;;;;4975185;28;20035;-68
2022/08/02 09:53:54;;;;;;;19.23;10.30;;;31.60;91.20;;;;;;4969722;28;20058;-71
2022/08/02 09:56:22;;;;;;;19.27;10.93;;;32.40;90.40;;;;;;4974768;28;20022;-67
2022/08/02 09:58:50;;;;;;;19.00;9.45;;;33.00;89.00;;;;;;4972545;28;20261;-68
2022/08/02 10:01:16;;;;;;;17.20;10.00;;;33.40;86.90;;;;;;4975015;28;20058;-70
2022/08/02 10:03:54;;;;;;;16.48;9.25;;;33.60;86.20;;;;;;4975224;28;20054;-67
2022/08/02 10:06:20;;;;;;;18.67;9.52;;;33.80;84.70;;;;;;4973435;28;20085;-67
2022/08/02 10:08:46;;;;;;;14.27;8.57;;;33.60;84.40;;;;;;4975052;28;20027;-66
2022/08/02 10:11:11;;;;;;;14.73;9.18;;;33.70;83.70;;;;;;4974554;28;20376;-67
2022/08/02 10:13:37;;;;;;;15.73;8.15;;;33.80;84.10;;;;;;4974269;28;20118;-67
2022/08/02 10:16:05;;;;;;;14.50;7.28;;;34.00;83.60;;;;;;4974612;28;20023;-67
2022/08/02 10:18:31;;;;;;;11.93;6.47;;;33.90;82.00;;;;;;4972978;28;20031;-66
2022/08/02 10:21:00;;;;;;;13.23;6.30;;;33.50;83.10;;;;;;4974291;28;20029;-67
2022/08/02 10:23:28;;;;;;;11.25;6.03;;;33.40;83.50;;;;;;4973725;28;20046;-67
2022/08/02 10:25:55;;;;;;;12.27;6.30;;;33.00;84.80;;;;;;4972358;28;20023;-67
2022/08/02 10:28:32;;;;;;;14.07;6.32;;;32.80;85.70;;;;;;4974365;28;20064;-67
2022/08/02 10:31:01;;;;;;;9.68;5.55;;;32.80;85.70;;;;;;4973823;28;20426;-68
2022/08/02 10:33:29;;;;;;;14.95;6.18;;;32.90;85.00;;;;;;4974005;28;20471;-67
2022/08/02 10:35:59;;;;;;;13.00;5.55;;;32.70;84.80;;;;;;4974307;28;20122;-69
2022/08/02 10:38:25;;;;;;;16.38;6.78;;;32.00;86.20;;;;;;4974258;28;20027;-67
2022/08/02 10:40:53;;;;;;;13.60;6.93;;;31.80;86.40;;;;;;4974200;28;20026;-68
2022/08/02 10:43:30;;;;;;;11.57;5.93;;;32.00;87.30;;;;;;4973997;28;20391;-67
2022/08/02 10:46:34;;;;;;;12.38;5.88;;;32.30;86.90;;;;;;4974027;28;20026;-69
2022/08/02 10:49:13;;;;;;;16.02;6.95;;;32.50;87.20;;;;;;4974074;28;20145;-67
2022/08/02 10:51:54;;;;;;;15.23;7.50;;;32.70;86.80;;;;;;4974205;28;20039;-67
2022/08/02 10:54:23;;;;;;;15.32;7.25;;;32.40;87.40;;;;;;4973797;28;20085;-68
2022/08/02 10:56:50;;;;;;;17.42;8.38;;;32.30;88.30;;;;;;4972858;28;20023;-67
2022/08/02 10:59:42;;;;;;;12.25;6.57;;;32.50;88.50;;;;;;4973725;28;20033;-65
2022/08/02 11:02:08;;;;;;;17.23;7.07;;;33.20;87.30;;;;;;4972976;28;20093;-71
2022/08/02 11:04:42;;;;;;;18.30;7.15;;;33.20;87.10;;;;;;4973664;28;20019;-67
2022/08/02 11:07:16;;;;;;;14.40;6.22;;;32.70;87.30;;;;;;4974090;28;20058;-67
2022/08/02 11:09:42;;;;;;;13.10;5.60;;;32.40;86.90;;;;;;4973780;28;20106;-68
2022/08/02 11:12:13;;;;;;;14.43;5.55;;;32.00;87.30;;;;;;4956410;28;20043;-66
2022/08/02 11:14:44;;;;;;;14.43;5.55;;;31.70;87.90;;;;;;4953077;28;20354;-69
2022/08/02 11:17:18;;;;;;;12.88;5.30;;;31.30;88.80;;;;;;4953813;28;20023;-71
2022/08/02 11:20:11;;;;;;;13.25;5.18;;;31.00;88.80;;;;;;4954585;28;20019;-67
2022/08/02 11:22:38;;;;;;;13.95;4.95;;;30.90;89.60;;;;;;4954051;28;20038;-67
2022/08/02 11:25:22;;;;;;;13.05;5.78;;;30.60;90.10;;;;;;4954252;28;20054;-68
2022/08/02 11:27:49;;;;;;;10.23;5.50;;;30.50;90.80;;;;;;4954002;28;20339;-67
2022/08/02 11:30:15;;;;;;;14.00;5.97;;;30.30;90.80;;;;;;4953643;28;20039;-67
2022/08/02 11:32:41;;;;;;;11.02;4.85;;;30.10;91.00;;;;;;4952786;29;20033;-67
2022/08/02 11:35:07;;;;;;;17.38;6.00;;;30.30;91.00;;;;;;4954316;28;20029;-68
2022/08/02 11:37:38;;;;;;;12.73;5.40;;;30.50;90.90;;;;;;4956449;28;20090;-66
2022/08/02 11:40:05;;;;;;;12.30;5.18;;;30.50;90.70;;;;;;4958157;28;20034;-68
2022/08/02 11:42:35;;;;;;;14.82;4.50;;;30.40;90.50;;;;;;4959072;28;20461;-69
2022/08/02 11:45:01;;;;;;;9.40;3.92;;;30.50;90.10;;;;;;4956956;28;20027;-67
2022/08/02 11:47:27;;;;;;;11.25;3.58;;;31.00;89.00;;;;;;4957816;28;20448;-67
2022/08/02 11:50:12;;;;;;;8.07;2.80;;;31.20;86.70;;;;;;4975932;28;20056;-69
2022/08/02 11:52:37;;;;;;;9.90;2.70;;;32.20;84.30;;;;;;4976100;28;20385;-67
2022/08/02 11:55:06;;;;;;;8.20;2.92;;;33.30;81.10;;;;;;4976745;28;20027;-67
2022/08/02 11:57:32;;;;;;;4.88;2.47;;;33.50;79.70;;;;;;4976604;28;20567;-67
2022/08/02 11:59:57;;;;;;;5.43;2.08;;;33.20;77.90;;;;;;4976811;28;20018;-67
2022/08/02 12:02:28;;;;;;;6.88;2.10;;;33.00;77.20;;;;;;4977341;28;20037;-66
2022/08/02 12:04:56;;;;;;;8.15;2.53;;;32.90;77.40;;;;;;4977081;28;20014;-67
2022/08/02 12:07:35;;;;;;;8.18;2.63;;;32.60;79.60;;;;;;4977052;28;20054;-66
2022/08/02 12:10:07;;;;;;;11.50;2.67;;;31.80;82.40;;;;;;4977257;28;20031;-66
2022/08/02 12:12:45;;;;;;;7.28;2.25;;;31.40;83.20;;;;;;4975628;28;20027;-66
2022/08/02 12:15:11;;;;;;;7.65;2.45;;;31.20;83.20;;;;;;4976459;28;20335;-66
2022/08/02 12:20:34;;;;;;;8.52;2.95;;;31.00;86.10;;;;;;4976338;28;20452;-66
2022/08/02 12:23:02;;;;;;;12.07;2.97;;;31.70;85.50;;;;;;4977283;28;20041;-65
2022/08/02 12:25:30;;;;;;;8.05;2.80;;;32.40;84.60;;;;;;4976693;28;20038;-67
2022/08/02 12:28:21;;;;;;;8.70;2.55;;;33.20;83.30;;;;;;4975162;28;20129;-67
2022/08/02 12:30:57;;;;;;;5.50;2.30;;;33.80;80.50;;;;;;4975673;28;20039;-65
2022/08/02 12:33:25;;;;;;;5.00;1.73;;;33.90;78.40;;;;;;4975224;28;20081;-67
2022/08/02 12:35:51;;;;;;;5.20;2.35;;;33.80;77.40;;;;;;4973244;28;20025;-66
2022/08/02 12:38:17;;;;;;;5.00;2.25;;;33.20;77.50;;;;;;4975333;28;20027;-67
2022/08/02 12:40:44;;;;;;;6.78;2.40;;;32.90;77.20;;;;;;4976514;28;20106;-67
2022/08/02 12:43:22;;;;;;;7.25;2.63;;;32.80;77.90;;;;;;4976494;28;20018;-67
2022/08/02 12:45:52;;;;;;;10.00;2.72;;;32.50;78.60;;;;;;4976395;28;20023;-67
2022/08/02 12:48:39;;;;;;;8.77;2.95;;;31.80;79.20;;;;;;4975259;28;20050;-66
2022/08/02 12:51:32;;;;;;;9.95;3.83;;;31.20;81.10;;;;;;4976282;28;20035;-66
2022/08/02 12:54:20;;;;;;;9.15;3.35;;;30.90;84.10;;;;;;4976375;28;20082;-67
2022/08/02 12:56:48;;;;;;;9.95;2.60;;;30.40;85.30;;;;;;4976768;28;20113;-67
2022/08/02 12:59:15;;;;;;;11.90;3.67;;;30.10;86.90;;;;;;4975993;28;20029;-67